Date,TemperatureHighF,TemperatureAvgF,TemperatureLowF,DewpointHighF,DewpointAvgF,DewpointLowF,HumidityHigh,HumidityAvg,HumidityLow,PressureMaxIn,PressureMinIn,WindSpeedMaxMPH,WindSpeedAvgMPH,GustSpeedMaxMPH,PrecipitationSumIn
2014-1-1,74,70,65,55,34,11,60,31,7,30.16,29.98,11,4,11,0.04
2014-1-2,81,73,66,24,13,-19,13,3,1,29.98,29.78,13,3,13,0.11
2014-1-3,66,57,44,47,36,8,63,47,5,30.19,29.91,16,6,16,0.00
2014-1-4,66,56,44,29,10,-7,42,16,1,30.16,29.99,10,3,11,0.01
2014-1-5,84,68,57,66,17,1,55,10,1,30.00,29.88,10,2,10,0.00
2014-1-6,77,62,49,40,19,4,60,21,1,30.24,29.89,14,3,14,0.00
2014-1-7,53,45,37,36,25,21,63,47,31,30.35,30.18,12,5,12,0.00
2014-1-8,68,52,37,50,22,-5,63,33,1,30.31,30.15,14,5,14,0.00
2014-1-9,72,65,55,14,8,0,17,1,1,30.20,30.08,10,4,10,0.17
2014-1-10,80,72,67,46,13,0,30,2,1,30.12,29.98,6,1,6,0.00
2014-1-11,82,73,66,20,13,8,1,1,1,30.02,29.88,14,3,14,0.12
2014-1-12,74,63,50,53,27,-2,59,28,1,30.13,29.95,10,2,10,0.00
2014-1-13,81,63,48,45,6,-6,29,3,1,30.09,29.90,7,2,7,0.00
2014-1-14,72,66,57,13,8,1,1,1,1,29.97,29.86,8,2,8,0.07
2014-1-15,65,55,48,46,6,-6,50,9,1,30.01,29.89,5,1,5,0.04
2014-1-16,59,49,38,40,20,-7,61,35,1,30.11,29.91,11,2,11,0.03
2014-1-17,67,49,35,48,10,-16,59,23,1,30.16,30.05,8,1,8,0.00
2014-1-18,60,50,38,40,19,-7,60,31,1,30.22,30.04,10,2,10,0.00
2014-1-19,70,50,34,48,3,-17,46,10,1,30.17,30.06,8,1,8,0.00
2014-1-20,75,57,45,58,10,-8,57,12,1,30.10,29.98,8,1,8,0.00
2014-1-21,74,60,52,37,6,-4,44,4,1,29.98,29.79,11,2,11,0.10
2014-1-22,60,49,38,42,26,-8,60,42,6,30.13,29.87,11,2,11,0.00
2014-1-23,67,48,35,38,16,-16,59,31,1,30.28,30.10,12,2,12,0.00
2014-1-24,64,50,40,37,29,9,60,44,29,30.38,30.20,14,4,14,0.00
2014-1-25,73,54,45,56,26,-5,60,36,1,30.20,29.98,7,2,7,0.00
2014-1-26,64,59,52,6,2,-3,1,1,1,30.00,29.90,7,1,7,0.02
2014-1-27,76,65,59,15,7,2,2,1,1,29.96,29.88,8,1,8,0.01
2014-1-28,83,66,54,64,16,-1,53,11,1,29.99,29.89,8,2,10,0.01
2014-1-29,64,55,45,20,0,-8,19,2,1,30.11,29.90,14,5,14,0.33
2014-1-30,53,49,46,-2,-5,-8,1,1,1,30.10,30.00,11,4,11,0.28
2014-1-31,70,60,51,10,3,-4,1,1,1,30.03,29.93,8,3,8,0.30